createdAt,value
2023-01-27T00:02:38.657Z,84.79
2023-01-27T00:07:30.403Z,85.37
2023-01-27T00:12:43.568Z,85.16
2023-01-27T00:17:35.572Z,85.23
2023-01-27T00:22:45.865Z,84.97
2023-01-27T00:27:37.589Z,85.14
2023-01-27T00:32:47.815Z,85.40
2023-01-27T00:37:39.467Z,85.84
2023-01-27T00:42:31.643Z,85.56
2023-01-27T00:47:23.309Z,85.80
2023-01-27T00:52:15.840Z,85.69
2023-01-27T00:57:07.758Z,84.78
2023-01-27T01:01:59.405Z,84.14
2023-01-27T01:06:51.054Z,83.65
2023-01-27T01:11:43.379Z,83.91
2023-01-27T01:16:35.006Z,83.76
2023-01-27T01:21:26.610Z,82.57
2023-01-27T01:26:18.493Z,82.13
2023-01-27T01:31:12.949Z,80.90
2023-01-27T01:36:10.670Z,80.43
2023-01-27T01:41:02.578Z,79.48
2023-01-27T01:45:56.197Z,79.54
2023-01-27T01:50:53.095Z,79.39
2023-01-27T01:55:46.299Z,76.21
2023-01-27T02:00:37.939Z,76.32
2023-01-27T02:05:32.883Z,76.63
2023-01-27T02:10:25.107Z,77.09
2023-01-27T02:15:17.807Z,76.52
2023-01-27T02:20:39.348Z,76.55
2023-01-27T02:25:34.014Z,76.78
2023-01-27T02:30:26.909Z,76.95
2023-01-27T02:35:27.088Z,77.35
2023-01-27T02:40:19.128Z,77.88
2023-01-27T02:45:11.000Z,78.68
2023-01-27T02:50:02.837Z,79.06
2023-01-27T02:54:54.827Z,78.99
2023-01-27T02:59:46.599Z,78.45
2023-01-27T03:04:38.840Z,78.39
2023-01-27T03:09:30.560Z,76.95
2023-01-27T03:14:22.574Z,76.03
2023-01-27T03:19:14.255Z,75.39
2023-01-27T03:24:06.593Z,75.19
2023-01-27T03:29:18.098Z,74.81
2023-01-27T03:34:10.074Z,74.94
2023-01-27T03:39:25.386Z,75.18
2023-01-27T03:44:35.766Z,74.19
2023-01-27T03:49:27.447Z,74.25
2023-01-27T03:54:19.704Z,74.56
2023-01-27T03:59:11.325Z,74.17
2023-01-27T04:04:22.188Z,74.68
2023-01-27T04:09:19.690Z,75.26
2023-01-27T04:14:12.351Z,75.54
2023-01-27T04:19:06.290Z,75.49
2023-01-27T04:23:58.173Z,75.82
2023-01-27T04:28:50.689Z,75.87
2023-01-27T04:33:43.508Z,76.61
2023-01-27T04:38:35.260Z,77.40
2023-01-27T04:43:27.118Z,77.18
2023-01-27T04:48:18.660Z,76.92
2023-01-27T04:53:10.241Z,76.91
2023-01-27T04:58:01.819Z,77.65
2023-01-27T05:02:53.423Z,77.08
2023-01-27T05:07:45.073Z,77.92
2023-01-27T05:12:36.632Z,77.66
2023-01-27T05:17:32.791Z,77.11
2023-01-27T05:22:24.359Z,76.99
2023-01-27T05:27:17.479Z,77.33
2023-01-27T05:32:09.081Z,77.34
2023-01-27T05:37:00.826Z,77.45
2023-01-27T05:41:52.400Z,77.49
2023-01-27T05:46:44.113Z,77.22
2023-01-27T05:51:39.667Z,77.36
2023-01-27T05:56:32.181Z,77.29
2023-01-27T06:01:26.937Z,78.02
2023-01-27T06:06:21.196Z,77.93
2023-01-27T06:11:13.793Z,77.72
2023-01-27T06:16:08.114Z,77.92
2023-01-27T06:21:01.424Z,77.61
2023-01-27T06:25:54.309Z,78.40
2023-01-27T06:30:45.987Z,78.46
2023-01-27T06:35:39.175Z,78.13
2023-01-27T06:40:32.581Z,78.51
2023-01-27T06:45:24.596Z,78.83
2023-01-27T06:50:16.481Z,78.82
2023-01-27T06:55:08.881Z,78.77
2023-01-27T07:00:00.575Z,78.35
2023-01-27T07:04:52.153Z,78.46
2023-01-27T07:09:52.379Z,78.47
2023-01-27T07:14:44.609Z,77.80
2023-01-27T07:19:36.134Z,77.78
2023-01-27T07:24:28.049Z,78.06
2023-01-27T07:29:19.606Z,78.06
2023-01-27T07:34:11.196Z,77.26
2023-01-27T07:39:02.751Z,77.74
2023-01-27T07:43:54.309Z,77.21
2023-01-27T07:48:47.765Z,77.27
2023-01-27T07:53:40.092Z,76.59
2023-01-27T07:58:31.742Z,76.04
2023-01-27T08:03:25.620Z,74.13
2023-01-27T08:08:18.914Z,74.46
2023-01-27T08:13:10.591Z,74.48
2023-01-27T08:18:02.345Z,74.19
2023-01-27T08:22:54.011Z,74.27
2023-01-27T08:27:45.586Z,73.87
2023-01-27T08:32:37.185Z,74.05
2023-01-27T08:37:29.212Z,72.98
2023-01-27T08:42:21.649Z,72.29
2023-01-27T08:47:13.180Z,72.77
2023-01-27T08:52:04.972Z,72.97
2023-01-27T08:56:56.551Z,72.69
2023-01-27T09:01:48.162Z,72.16
2023-01-27T09:06:39.832Z,69.43
2023-01-27T09:11:31.540Z,68.35
2023-01-27T09:16:23.122Z,66.83
2023-01-27T09:21:14.767Z,65.20
2023-01-27T09:26:06.310Z,66.43
2023-01-27T09:30:59.351Z,67.94
2023-01-27T09:36:14.847Z,68.89
2023-01-27T09:41:12.461Z,69.80
2023-01-27T09:46:42.034Z,69.32
2023-01-27T09:51:41.940Z,68.24
2023-01-27T09:56:47.906Z,66.61
2023-01-27T10:02:01.099Z,66.18
2023-01-27T10:07:30.756Z,65.15
2023-01-27T10:12:42.385Z,65.17
2023-01-27T10:17:46.950Z,65.16
2023-01-27T10:23:07.752Z,65.40
2023-01-27T10:28:09.462Z,65.14
2023-01-27T10:33:15.280Z,65.92
2023-01-27T10:38:39.243Z,64.50
2023-01-27T10:43:55.012Z,65.49
2023-01-27T10:48:54.494Z,66.59
2023-01-27T10:53:58.301Z,66.61
2023-01-27T10:59:03.551Z,66.95
2023-01-27T11:04:24.563Z,66.36
2023-01-27T11:09:28.589Z,64.05
2023-01-27T11:14:30.239Z,63.68
2023-01-27T11:19:38.410Z,63.79
2023-01-27T11:24:34.314Z,64.14
2023-01-27T11:29:45.837Z,63.63
2023-01-27T11:34:53.329Z,62.69
2023-01-27T11:39:45.274Z,63.64
2023-01-27T11:44:38.375Z,62.91
2023-01-27T11:49:34.524Z,62.33
2023-01-27T11:54:28.749Z,62.93
2023-01-27T11:59:25.849Z,63.28
2023-01-27T12:04:40.309Z,63.04
2023-01-27T12:09:37.883Z,62.55
2023-01-27T12:14:29.473Z,61.72
2023-01-27T12:19:32.052Z,63.38
2023-01-27T12:24:36.200Z,62.27
2023-01-27T12:29:30.549Z,61.48
2023-01-27T12:34:36.841Z,61.54
2023-01-27T12:39:41.755Z,62.31
2023-01-27T12:44:46.436Z,62.38
2023-01-27T12:49:40.384Z,62.31
2023-01-27T12:54:32.954Z,62.00
2023-01-27T12:59:25.945Z,61.49
2023-01-27T13:04:21.330Z,61.19
2023-01-27T13:09:38.147Z,61.59
2023-01-27T13:14:33.393Z,62.48
2023-01-27T13:19:42.069Z,64.33
2023-01-27T13:24:41.313Z,63.85
2023-01-27T13:29:35.203Z,64.06
2023-01-27T13:34:34.074Z,64.29
2023-01-27T13:39:43.001Z,65.26
2023-01-27T13:45:17.170Z,65.18
2023-01-27T13:50:19.418Z,65.11
2023-01-27T13:55:14.780Z,65.81
2023-01-27T14:00:41.782Z,65.72
2023-01-27T14:05:44.562Z,65.03
2023-01-27T14:10:40.891Z,65.71
2023-01-27T14:15:57.131Z,65.71
2023-01-27T14:20:54.931Z,66.06
2023-01-27T14:26:16.999Z,66.09
2023-01-27T14:31:19.952Z,65.75
2023-01-27T14:36:27.128Z,65.84
2023-01-27T14:41:37.101Z,65.90
2023-01-27T14:46:50.978Z,65.68
2023-01-27T14:51:49.682Z,66.02
2023-01-27T14:57:05.879Z,65.77
2023-01-27T15:02:36.904Z,65.38
2023-01-27T15:07:52.943Z,64.93
2023-01-27T15:13:09.111Z,65.17
2023-01-27T15:18:16.647Z,66.12
2023-01-27T15:23:40.792Z,66.67
2023-01-27T15:28:36.586Z,66.39
2023-01-27T15:33:55.335Z,66.10
2023-01-27T15:39:08.959Z,66.68
2023-01-27T15:44:16.660Z,65.81
2023-01-27T15:49:19.936Z,67.08
2023-01-27T15:54:18.924Z,66.44
2023-01-27T15:59:24.635Z,65.76
2023-01-27T16:04:23.285Z,65.82
2023-01-27T16:09:26.817Z,65.59
2023-01-27T16:14:32.870Z,66.30
2023-01-27T16:19:32.600Z,65.73
2023-01-27T16:24:34.597Z,66.11
2023-01-27T16:29:37.037Z,66.69
2023-01-27T16:34:58.138Z,67.03
2023-01-27T16:40:14.998Z,67.13
2023-01-27T16:45:23.342Z,66.87
2023-01-27T16:50:35.063Z,67.99
2023-01-27T16:55:27.262Z,68.52
2023-01-27T17:00:22.998Z,68.77
2023-01-27T17:05:17.766Z,70.05
2023-01-27T17:10:21.509Z,70.50
2023-01-27T17:15:37.103Z,70.07
2023-01-27T17:20:34.009Z,69.27
2023-01-27T17:25:35.599Z,70.16
2023-01-27T17:30:34.858Z,69.99
2023-01-27T17:35:36.518Z,70.38
2023-01-27T17:40:28.074Z,69.55
2023-01-27T17:45:26.738Z,69.35
2023-01-27T17:50:24.557Z,69.35
2023-01-27T17:55:18.205Z,68.97
2023-01-27T18:00:33.481Z,70.14
2023-01-27T18:05:29.217Z,69.68
2023-01-27T18:10:23.869Z,70.05
2023-01-27T18:15:37.161Z,70.98
2023-01-27T18:20:31.355Z,71.82
2023-01-27T18:25:23.948Z,72.28
2023-01-27T18:30:19.103Z,72.69
2023-01-27T18:35:29.953Z,72.97
2023-01-27T18:40:29.160Z,72.45
2023-01-27T18:45:21.079Z,71.53
2023-01-27T18:50:19.352Z,71.20
2023-01-27T18:55:17.327Z,70.54
2023-01-27T19:00:16.891Z,70.23
2023-01-27T19:05:25.574Z,69.63
2023-01-27T19:10:24.801Z,69.99
2023-01-27T19:15:16.820Z,69.27
2023-01-27T19:20:20.200Z,68.99
2023-01-27T19:25:13.408Z,69.58
2023-01-27T19:30:25.050Z,69.93
2023-01-27T19:35:17.610Z,69.79
2023-01-27T19:40:17.051Z,69.97
2023-01-27T19:45:13.003Z,70.41
2023-01-27T19:50:05.732Z,69.35
2023-01-27T19:54:58.312Z,69.56
2023-01-27T19:59:49.884Z,70.13
2023-01-27T20:04:41.532Z,70.89
2023-01-27T20:09:33.263Z,71.34
2023-01-27T20:14:26.032Z,71.56
2023-01-27T20:19:18.044Z,71.54
2023-01-27T20:24:14.776Z,71.66
2023-01-27T20:29:06.393Z,68.61
2023-01-27T20:33:59.336Z,67.99
2023-01-27T20:38:51.817Z,68.15
2023-01-27T20:43:43.899Z,68.23
2023-01-27T20:48:35.893Z,68.24
2023-01-27T20:53:31.566Z,68.00
2023-01-27T20:58:23.497Z,67.89
2023-01-27T21:03:15.039Z,68.37
2023-01-27T21:08:06.640Z,68.94
2023-01-27T21:12:58.260Z,68.22
2023-01-27T21:17:50.054Z,67.62
2023-01-27T21:22:56.723Z,67.79
2023-01-27T21:27:49.463Z,67.84
2023-01-27T21:32:42.065Z,68.02
2023-01-27T21:37:36.390Z,67.50
2023-01-27T21:42:47.415Z,67.54
2023-01-27T21:47:43.619Z,67.77
2023-01-27T21:52:46.130Z,67.52
2023-01-27T21:57:39.217Z,67.41
2023-01-27T22:02:31.575Z,67.44
2023-01-27T22:07:26.496Z,68.14
2023-01-27T22:12:29.021Z,68.67
2023-01-27T22:17:21.507Z,68.48
2023-01-27T22:22:14.624Z,67.95
2023-01-27T22:27:06.363Z,67.88
2023-01-27T22:31:58.508Z,68.03
2023-01-27T22:36:50.137Z,68.17
2023-01-27T22:41:41.763Z,67.42
2023-01-27T22:46:33.389Z,68.63
2023-01-27T22:51:25.058Z,67.84
2023-01-27T22:56:16.650Z,67.73
2023-01-27T23:01:08.249Z,67.62
2023-01-27T23:06:07.571Z,68.53
2023-01-27T23:11:04.873Z,68.25
2023-01-27T23:15:57.324Z,68.14
2023-01-27T23:36:00.397Z,68.11
2023-01-27T23:40:54.303Z,68.34
2023-01-27T23:45:53.694Z,69.34
2023-01-27T23:50:45.654Z,70.18
2023-01-27T23:55:37.191Z,70.70
